sensor_id;sensor_type;location;lat;lon;timestamp;P1;durP1;ratioP1;P2;durP2;ratioP2
4422;SDS011;2224;49.814;8.650;2023-04-30T00:00:18;15.30;;;13.80;;
4422;SDS011;2224;49.814;8.650;2023-04-30T00:02:44;17.57;;;15.80;;
4422;SDS011;2224;49.814;8.650;2023-04-30T00:05:09;15.03;;;13.53;;
4422;SDS011;2224;49.814;8.650;2023-04-30T00:07:34;15.80;;;14.20;;
4422;SDS011;2224;49.814;8.650;2023-04-30T00:10:00;16.17;;;14.57;;
4422;SDS011;2224;49.814;8.650;2023-04-30T00:12:25;16.30;;;14.70;;
4422;SDS011;2224;49.814;8.650;2023-04-30T00:14:50;15.93;;;14.40;;
4422;SDS011;2224;49.814;8.650;2023-04-30T00:17:16;16.13;;;14.50;;
4422;SDS011;2224;49.814;8.650;2023-04-30T00:19:41;15.33;;;13.83;;
4422;SDS011;2224;49.814;8.650;2023-04-30T00:22:07;16.43;;;14.73;;
4422;SDS011;2224;49.814;8.650;2023-04-30T00:24:32;15.63;;;14.03;;
4422;SDS011;2224;49.814;8.650;2023-04-30T00:26:58;16.03;;;14.50;;
4422;SDS011;2224;49.814;8.650;2023-04-30T00:29:23;16.90;;;15.20;;
4422;SDS011;2224;49.814;8.650;2023-04-30T00:31:48;16.33;;;14.70;;
4422;SDS011;2224;49.814;8.650;2023-04-30T00:34:14;16.23;;;14.30;;
4422;SDS011;2224;49.814;8.650;2023-04-30T00:36:39;16.20;;;13.90;;
4422;SDS011;2224;49.814;8.650;2023-04-30T00:39:04;15.23;;;13.63;;
4422;SDS011;2224;49.814;8.650;2023-04-30T00:41:30;18.60;;;14.43;;
4422;SDS011;2224;49.814;8.650;2023-04-30T00:43:56;16.70;;;15.03;;
4422;SDS011;2224;49.814;8.650;2023-04-30T00:46:21;17.37;;;14.53;;
4422;SDS011;2224;49.814;8.650;2023-04-30T00:48:46;15.57;;;14.07;;
4422;SDS011;2224;49.814;8.650;2023-04-30T00:51:12;16.17;;;14.47;;
4422;SDS011;2224;49.814;8.650;2023-04-30T00:53:39;16.97;;;14.93;;
4422;SDS011;2224;49.814;8.650;2023-04-30T00:56:05;16.60;;;14.97;;
4422;SDS011;2224;49.814;8.650;2023-04-30T00:58:33;17.03;;;15.23;;
4422;SDS011;2224;49.814;8.650;2023-04-30T01:00:58;19.03;;;16.53;;
4422;SDS011;2224;49.814;8.650;2023-04-30T01:03:25;17.57;;;15.87;;
4422;SDS011;2224;49.814;8.650;2023-04-30T01:05:50;18.40;;;16.60;;
4422;SDS011;2224;49.814;8.650;2023-04-30T01:08:17;18.77;;;16.87;;
4422;SDS011;2224;49.814;8.650;2023-04-30T01:10:53;19.63;;;17.73;;
4422;SDS011;2224;49.814;8.650;2023-04-30T01:18:28;19.20;;;17.17;;
4422;SDS011;2224;49.814;8.650;2023-04-30T01:21:05;18.10;;;16.33;;
4422;SDS011;2224;49.814;8.650;2023-04-30T01:26:10;18.97;;;16.97;;
4422;SDS011;2224;49.814;8.650;2023-04-30T01:28:38;19.83;;;16.90;;
4422;SDS011;2224;49.814;8.650;2023-04-30T01:31:10;18.60;;;16.70;;
4422;SDS011;2224;49.814;8.650;2023-04-30T01:33:37;19.33;;;17.43;;
4422;SDS011;2224;49.814;8.650;2023-04-30T01:36:07;18.10;;;16.30;;
4422;SDS011;2224;49.814;8.650;2023-04-30T01:41:38;19.00;;;16.63;;
4422;SDS011;2224;49.814;8.650;2023-04-30T01:46:52;16.93;;;15.23;;
4422;SDS011;2224;49.814;8.650;2023-04-30T01:52:31;19.27;;;16.33;;
4422;SDS011;2224;49.814;8.650;2023-04-30T01:57:42;17.83;;;16.03;;
4422;SDS011;2224;49.814;8.650;2023-04-30T02:00:16;18.33;;;16.00;;
4422;SDS011;2224;49.814;8.650;2023-04-30T02:02:42;18.83;;;17.03;;
4422;SDS011;2224;49.814;8.650;2023-04-30T02:05:07;19.70;;;17.53;;
4422;SDS011;2224;49.814;8.650;2023-04-30T02:07:37;18.70;;;16.67;;
4422;SDS011;2224;49.814;8.650;2023-04-30T02:10:05;17.63;;;15.93;;
4422;SDS011;2224;49.814;8.650;2023-04-30T02:12:31;19.07;;;17.07;;
4422;SDS011;2224;49.814;8.650;2023-04-30T02:14:56;19.37;;;17.27;;
4422;SDS011;2224;49.814;8.650;2023-04-30T02:17:21;18.07;;;16.27;;
4422;SDS011;2224;49.814;8.650;2023-04-30T02:19:47;19.57;;;17.50;;
4422;SDS011;2224;49.814;8.650;2023-04-30T02:22:12;20.20;;;17.73;;
4422;SDS011;2224;49.814;8.650;2023-04-30T02:24:37;21.07;;;18.87;;
4422;SDS011;2224;49.814;8.650;2023-04-30T02:27:03;18.67;;;16.73;;
4422;SDS011;2224;49.814;8.650;2023-04-30T02:29:28;23.07;;;18.07;;
4422;SDS011;2224;49.814;8.650;2023-04-30T02:31:56;19.67;;;17.67;;
4422;SDS011;2224;49.814;8.650;2023-04-30T02:34:22;19.03;;;17.00;;
4422;SDS011;2224;49.814;8.650;2023-04-30T02:36:47;23.40;;;19.27;;
4422;SDS011;2224;49.814;8.650;2023-04-30T02:39:13;19.90;;;17.80;;
4422;SDS011;2224;49.814;8.650;2023-04-30T02:41:38;21.47;;;18.93;;
4422;SDS011;2224;49.814;8.650;2023-04-30T02:44:03;19.73;;;17.50;;
4422;SDS011;2224;49.814;8.650;2023-04-30T02:46:29;20.07;;;17.87;;
4422;SDS011;2224;49.814;8.650;2023-04-30T02:48:54;21.17;;;18.53;;
4422;SDS011;2224;49.814;8.650;2023-04-30T02:51:19;20.57;;;18.37;;
4422;SDS011;2224;49.814;8.650;2023-04-30T02:53:45;22.27;;;19.87;;
4422;SDS011;2224;49.814;8.650;2023-04-30T02:56:10;21.77;;;19.43;;
4422;SDS011;2224;49.814;8.650;2023-04-30T02:58:35;22.57;;;18.57;;
4422;SDS011;2224;49.814;8.650;2023-04-30T03:01:00;22.60;;;19.70;;
4422;SDS011;2224;49.814;8.650;2023-04-30T03:03:26;20.90;;;18.77;;
4422;SDS011;2224;49.814;8.650;2023-04-30T03:05:51;22.77;;;19.30;;
4422;SDS011;2224;49.814;8.650;2023-04-30T03:08:16;22.60;;;19.13;;
4422;SDS011;2224;49.814;8.650;2023-04-30T03:10:42;20.80;;;18.50;;
4422;SDS011;2224;49.814;8.650;2023-04-30T03:13:07;20.93;;;18.70;;
4422;SDS011;2224;49.814;8.650;2023-04-30T03:15:32;21.20;;;18.87;;
4422;SDS011;2224;49.814;8.650;2023-04-30T03:17:58;21.43;;;18.90;;
4422;SDS011;2224;49.814;8.650;2023-04-30T03:20:23;19.70;;;17.53;;
4422;SDS011;2224;49.814;8.650;2023-04-30T03:22:48;21.90;;;19.50;;
4422;SDS011;2224;49.814;8.650;2023-04-30T03:25:14;22.13;;;19.77;;
4422;SDS011;2224;49.814;8.650;2023-04-30T03:27:39;21.87;;;19.67;;
4422;SDS011;2224;49.814;8.650;2023-04-30T03:30:04;21.80;;;19.43;;
4422;SDS011;2224;49.814;8.650;2023-04-30T03:32:31;21.10;;;19.00;;
4422;SDS011;2224;49.814;8.650;2023-04-30T03:34:56;21.57;;;19.27;;
4422;SDS011;2224;49.814;8.650;2023-04-30T03:37:21;21.57;;;19.27;;
4422;SDS011;2224;49.814;8.650;2023-04-30T03:39:47;26.90;;;19.03;;
4422;SDS011;2224;49.814;8.650;2023-04-30T03:42:12;23.27;;;19.27;;
4422;SDS011;2224;49.814;8.650;2023-04-30T03:44:37;21.03;;;18.80;;
4422;SDS011;2224;49.814;8.650;2023-04-30T03:47:03;20.60;;;18.53;;
4422;SDS011;2224;49.814;8.650;2023-04-30T03:49:28;21.40;;;19.20;;
4422;SDS011;2224;49.814;8.650;2023-04-30T03:51:54;20.83;;;18.70;;
4422;SDS011;2224;49.814;8.650;2023-04-30T03:54:19;21.50;;;19.30;;
4422;SDS011;2224;49.814;8.650;2023-04-30T03:56:44;22.63;;;18.93;;
4422;SDS011;2224;49.814;8.650;2023-04-30T03:59:10;20.83;;;18.60;;
4422;SDS011;2224;49.814;8.650;2023-04-30T04:01:35;21.07;;;18.90;;
4422;SDS011;2224;49.814;8.650;2023-04-30T04:04:00;21.33;;;19.10;;
4422;SDS011;2224;49.814;8.650;2023-04-30T04:06:26;21.63;;;18.87;;
4422;SDS011;2224;49.814;8.650;2023-04-30T04:08:51;20.33;;;18.23;;
4422;SDS011;2224;49.814;8.650;2023-04-30T04:11:16;19.90;;;17.80;;
4422;SDS011;2224;49.814;8.650;2023-04-30T04:13:42;22.07;;;19.07;;
4422;SDS011;2224;49.814;8.650;2023-04-30T04:16:07;21.90;;;19.57;;
4422;SDS011;2224;49.814;8.650;2023-04-30T04:18:33;22.53;;;20.07;;
4422;SDS011;2224;49.814;8.650;2023-04-30T04:20:58;20.67;;;18.50;;
4422;SDS011;2224;49.814;8.650;2023-04-30T04:23:25;22.97;;;20.07;;
4422;SDS011;2224;49.814;8.650;2023-04-30T04:25:50;21.90;;;19.63;;
4422;SDS011;2224;49.814;8.650;2023-04-30T04:28:16;20.10;;;17.83;;
4422;SDS011;2224;49.814;8.650;2023-04-30T04:30:41;24.63;;;19.37;;
4422;SDS011;2224;49.814;8.650;2023-04-30T04:33:07;22.27;;;19.87;;
4422;SDS011;2224;49.814;8.650;2023-04-30T04:35:32;20.90;;;18.80;;
4422;SDS011;2224;49.814;8.650;2023-04-30T04:37:58;21.67;;;19.30;;
4422;SDS011;2224;49.814;8.650;2023-04-30T04:40:24;22.97;;;20.13;;
4422;SDS011;2224;49.814;8.650;2023-04-30T04:42:49;23.10;;;19.13;;
4422;SDS011;2224;49.814;8.650;2023-04-30T04:45:18;21.77;;;19.33;;
4422;SDS011;2224;49.814;8.650;2023-04-30T04:47:44;21.83;;;19.53;;
4422;SDS011;2224;49.814;8.650;2023-04-30T04:50:10;21.77;;;18.97;;
4422;SDS011;2224;49.814;8.650;2023-04-30T04:52:36;22.97;;;19.47;;
4422;SDS011;2224;49.814;8.650;2023-04-30T04:55:01;21.43;;;19.03;;
4422;SDS011;2224;49.814;8.650;2023-04-30T04:57:27;21.67;;;19.10;;
4422;SDS011;2224;49.814;8.650;2023-04-30T04:59:52;20.73;;;17.90;;
4422;SDS011;2224;49.814;8.650;2023-04-30T05:02:18;22.30;;;18.80;;
4422;SDS011;2224;49.814;8.650;2023-04-30T05:04:43;22.43;;;19.57;;
4422;SDS011;2224;49.814;8.650;2023-04-30T05:07:10;20.47;;;18.30;;
4422;SDS011;2224;49.814;8.650;2023-04-30T05:09:36;20.77;;;18.10;;
4422;SDS011;2224;49.814;8.650;2023-04-30T05:12:01;21.03;;;18.27;;
4422;SDS011;2224;49.814;8.650;2023-04-30T05:14:27;20.33;;;18.23;;
4422;SDS011;2224;49.814;8.650;2023-04-30T05:16:53;23.00;;;18.87;;
4422;SDS011;2224;49.814;8.650;2023-04-30T05:19:18;22.50;;;19.03;;
4422;SDS011;2224;49.814;8.650;2023-04-30T05:21:43;22.03;;;18.93;;
4422;SDS011;2224;49.814;8.650;2023-04-30T05:24:09;19.90;;;17.60;;
4422;SDS011;2224;49.814;8.650;2023-04-30T05:26:34;20.87;;;18.67;;
4422;SDS011;2224;49.814;8.650;2023-04-30T05:28:59;20.83;;;18.63;;
4422;SDS011;2224;49.814;8.650;2023-04-30T05:31:25;20.47;;;17.23;;
4422;SDS011;2224;49.814;8.650;2023-04-30T05:33:50;20.83;;;18.40;;
4422;SDS011;2224;49.814;8.650;2023-04-30T05:36:15;18.97;;;17.03;;
4422;SDS011;2224;49.814;8.650;2023-04-30T05:38:41;19.70;;;17.60;;
4422;SDS011;2224;49.814;8.650;2023-04-30T05:41:06;22.70;;;17.10;;
4422;SDS011;2224;49.814;8.650;2023-04-30T05:43:32;19.47;;;16.90;;
4422;SDS011;2224;49.814;8.650;2023-04-30T05:45:57;20.57;;;18.47;;
4422;SDS011;2224;49.814;8.650;2023-04-30T05:48:23;19.57;;;17.50;;
4422;SDS011;2224;49.814;8.650;2023-04-30T05:50:48;18.50;;;16.50;;
4422;SDS011;2224;49.814;8.650;2023-04-30T05:53:13;19.87;;;17.67;;
4422;SDS011;2224;49.814;8.650;2023-04-30T05:55:38;19.90;;;17.60;;
4422;SDS011;2224;49.814;8.650;2023-04-30T05:58:04;17.63;;;15.73;;
4422;SDS011;2224;49.814;8.650;2023-04-30T06:00:30;20.53;;;17.70;;
4422;SDS011;2224;49.814;8.650;2023-04-30T06:02:55;22.10;;;18.20;;
4422;SDS011;2224;49.814;8.650;2023-04-30T06:05:21;21.23;;;17.80;;
4422;SDS011;2224;49.814;8.650;2023-04-30T06:07:46;17.03;;;15.00;;
4422;SDS011;2224;49.814;8.650;2023-04-30T06:10:11;19.00;;;16.27;;
4422;SDS011;2224;49.814;8.650;2023-04-30T06:12:37;18.30;;;16.30;;
4422;SDS011;2224;49.814;8.650;2023-04-30T06:15:03;19.43;;;16.20;;
4422;SDS011;2224;49.814;8.650;2023-04-30T06:17:29;20.07;;;17.37;;
4422;SDS011;2224;49.814;8.650;2023-04-30T06:19:54;18.77;;;15.93;;
4422;SDS011;2224;49.814;8.650;2023-04-30T06:22:20;19.07;;;17.00;;
4422;SDS011;2224;49.814;8.650;2023-04-30T06:24:45;19.10;;;14.70;;
4422;SDS011;2224;49.814;8.650;2023-04-30T06:27:10;18.27;;;15.93;;
4422;SDS011;2224;49.814;8.650;2023-04-30T06:29:36;17.70;;;15.37;;
4422;SDS011;2224;49.814;8.650;2023-04-30T06:32:01;16.97;;;15.23;;
4422;SDS011;2224;49.814;8.650;2023-04-30T06:34:26;19.30;;;15.10;;
4422;SDS011;2224;49.814;8.650;2023-04-30T06:36:51;17.17;;;15.10;;
4422;SDS011;2224;49.814;8.650;2023-04-30T06:39:17;18.10;;;15.17;;
4422;SDS011;2224;49.814;8.650;2023-04-30T06:41:42;18.73;;;15.57;;
4422;SDS011;2224;49.814;8.650;2023-04-30T06:44:08;15.80;;;14.10;;
4422;SDS011;2224;49.814;8.650;2023-04-30T06:46:33;15.47;;;13.73;;
4422;SDS011;2224;49.814;8.650;2023-04-30T06:48:58;18.57;;;14.53;;
4422;SDS011;2224;49.814;8.650;2023-04-30T06:51:24;13.83;;;11.60;;
4422;SDS011;2224;49.814;8.650;2023-04-30T06:53:50;14.30;;;12.87;;
4422;SDS011;2224;49.814;8.650;2023-04-30T06:56:15;12.93;;;11.07;;
4422;SDS011;2224;49.814;8.650;2023-04-30T06:58:41;14.03;;;11.00;;
4422;SDS011;2224;49.814;8.650;2023-04-30T07:01:06;16.03;;;11.70;;
4422;SDS011;2224;49.814;8.650;2023-04-30T07:03:32;12.90;;;11.70;;
4422;SDS011;2224;49.814;8.650;2023-04-30T07:05:58;11.80;;;10.40;;
4422;SDS011;2224;49.814;8.650;2023-04-30T07:08:24;11.50;;;10.30;;
4422;SDS011;2224;49.814;8.650;2023-04-30T07:10:49;15.07;;;10.23;;
4422;SDS011;2224;49.814;8.650;2023-04-30T07:13:14;10.93;;;9.83;;
4422;SDS011;2224;49.814;8.650;2023-04-30T07:15:40;10.40;;;9.30;;
4422;SDS011;2224;49.814;8.650;2023-04-30T07:18:06;9.40;;;8.50;;
4422;SDS011;2224;49.814;8.650;2023-04-30T07:20:31;10.07;;;9.07;;
4422;SDS011;2224;49.814;8.650;2023-04-30T07:22:56;9.97;;;8.60;;
4422;SDS011;2224;49.814;8.650;2023-04-30T07:25:22;8.70;;;7.37;;
4422;SDS011;2224;49.814;8.650;2023-04-30T07:27:47;8.53;;;7.73;;
4422;SDS011;2224;49.814;8.650;2023-04-30T07:30:13;8.17;;;7.27;;
4422;SDS011;2224;49.814;8.650;2023-04-30T07:32:38;10.10;;;7.73;;
4422;SDS011;2224;49.814;8.650;2023-04-30T07:35:05;11.30;;;7.57;;
4422;SDS011;2224;49.814;8.650;2023-04-30T07:37:31;8.33;;;7.53;;
4422;SDS011;2224;49.814;8.650;2023-04-30T07:39:56;8.93;;;7.40;;
4422;SDS011;2224;49.814;8.650;2023-04-30T07:42:21;10.30;;;7.40;;
4422;SDS011;2224;49.814;8.650;2023-04-30T07:44:47;6.60;;;6.00;;
4422;SDS011;2224;49.814;8.650;2023-04-30T07:47:13;7.83;;;6.03;;
4422;SDS011;2224;49.814;8.650;2023-04-30T07:49:38;12.73;;;6.30;;
4422;SDS011;2224;49.814;8.650;2023-04-30T07:52:03;6.10;;;5.50;;
4422;SDS011;2224;49.814;8.650;2023-04-30T07:54:29;8.27;;;6.20;;
4422;SDS011;2224;49.814;8.650;2023-04-30T07:56:55;7.03;;;6.33;;
4422;SDS011;2224;49.814;8.650;2023-04-30T07:59:20;6.97;;;6.27;;
4422;SDS011;2224;49.814;8.650;2023-04-30T08:01:48;6.30;;;5.70;;
4422;SDS011;2224;49.814;8.650;2023-04-30T08:04:14;7.77;;;6.50;;
4422;SDS011;2224;49.814;8.650;2023-04-30T08:06:39;8.17;;;6.57;;
4422;SDS011;2224;49.814;8.650;2023-04-30T08:09:04;6.77;;;6.20;;
4422;SDS011;2224;49.814;8.650;2023-04-30T08:11:29;6.80;;;6.07;;
4422;SDS011;2224;49.814;8.650;2023-04-30T08:13:55;7.03;;;6.33;;
4422;SDS011;2224;49.814;8.650;2023-04-30T08:16:20;6.90;;;5.97;;
4422;SDS011;2224;49.814;8.650;2023-04-30T08:18:46;6.30;;;5.70;;
4422;SDS011;2224;49.814;8.650;2023-04-30T08:21:13;5.53;;;5.03;;
4422;SDS011;2224;49.814;8.650;2023-04-30T08:23:38;5.67;;;5.17;;
4422;SDS011;2224;49.814;8.650;2023-04-30T08:26:04;6.10;;;5.00;;
4422;SDS011;2224;49.814;8.650;2023-04-30T08:28:29;5.60;;;5.10;;
4422;SDS011;2224;49.814;8.650;2023-04-30T08:30:55;5.63;;;5.13;;
4422;SDS011;2224;49.814;8.650;2023-04-30T08:33:20;5.00;;;4.50;;
4422;SDS011;2224;49.814;8.650;2023-04-30T08:35:46;4.73;;;4.10;;
4422;SDS011;2224;49.814;8.650;2023-04-30T08:38:11;4.60;;;4.23;;
4422;SDS011;2224;49.814;8.650;2023-04-30T08:40:37;4.40;;;4.00;;
4422;SDS011;2224;49.814;8.650;2023-04-30T08:43:07;4.90;;;3.37;;
4422;SDS011;2224;49.814;8.650;2023-04-30T08:45:33;4.70;;;3.43;;
4422;SDS011;2224;49.814;8.650;2023-04-30T08:47:59;4.03;;;3.63;;
4422;SDS011;2224;49.814;8.650;2023-04-30T08:50:28;3.20;;;2.90;;
4422;SDS011;2224;49.814;8.650;2023-04-30T08:52:55;3.83;;;3.30;;
4422;SDS011;2224;49.814;8.650;2023-04-30T08:55:21;3.57;;;3.27;;
4422;SDS011;2224;49.814;8.650;2023-04-30T08:57:47;3.33;;;3.00;;
4422;SDS011;2224;49.814;8.650;2023-04-30T09:00:12;3.60;;;3.10;;
4422;SDS011;2224;49.814;8.650;2023-04-30T09:02:39;3.37;;;3.10;;
4422;SDS011;2224;49.814;8.650;2023-04-30T09:05:11;2.87;;;2.67;;
4422;SDS011;2224;49.814;8.650;2023-04-30T09:07:41;3.67;;;2.80;;
4422;SDS011;2224;49.814;8.650;2023-04-30T09:10:18;2.50;;;2.30;;
4422;SDS011;2224;49.814;8.650;2023-04-30T09:13:00;3.13;;;2.77;;
4422;SDS011;2224;49.814;8.650;2023-04-30T09:15:27;2.63;;;2.43;;
4422;SDS011;2224;49.814;8.650;2023-04-30T09:20:56;3.40;;;2.67;;
4422;SDS011;2224;49.814;8.650;2023-04-30T09:23:26;2.40;;;2.20;;
4422;SDS011;2224;49.814;8.650;2023-04-30T09:25:51;2.60;;;2.40;;
4422;SDS011;2224;49.814;8.650;2023-04-30T09:28:17;2.73;;;2.33;;
4422;SDS011;2224;49.814;8.650;2023-04-30T09:30:42;2.60;;;2.40;;
4422;SDS011;2224;49.814;8.650;2023-04-30T09:33:08;4.20;;;2.60;;
4422;SDS011;2224;49.814;8.650;2023-04-30T09:35:33;2.30;;;2.10;;
4422;SDS011;2224;49.814;8.650;2023-04-30T09:38:00;2.40;;;2.20;;
4422;SDS011;2224;49.814;8.650;2023-04-30T09:40:39;2.37;;;2.20;;
4422;SDS011;2224;49.814;8.650;2023-04-30T09:43:06;2.30;;;1.93;;
4422;SDS011;2224;49.814;8.650;2023-04-30T09:45:38;2.20;;;2.00;;
4422;SDS011;2224;49.814;8.650;2023-04-30T09:48:15;2.83;;;2.10;;
4422;SDS011;2224;49.814;8.650;2023-04-30T09:50:41;2.07;;;1.90;;
4422;SDS011;2224;49.814;8.650;2023-04-30T09:53:07;3.57;;;2.20;;
4422;SDS011;2224;49.814;8.650;2023-04-30T09:55:34;3.30;;;2.20;;
4422;SDS011;2224;49.814;8.650;2023-04-30T09:58:01;2.50;;;2.00;;
4422;SDS011;2224;49.814;8.650;2023-04-30T10:00:28;1.73;;;1.63;;
4422;SDS011;2224;49.814;8.650;2023-04-30T10:02:54;3.07;;;2.10;;
4422;SDS011;2224;49.814;8.650;2023-04-30T10:05:21;2.23;;;1.97;;
4422;SDS011;2224;49.814;8.650;2023-04-30T10:07:46;2.07;;;1.87;;
4422;SDS011;2224;49.814;8.650;2023-04-30T10:10:11;2.17;;;1.97;;
4422;SDS011;2224;49.814;8.650;2023-04-30T10:12:46;2.63;;;2.43;;
4422;SDS011;2224;49.814;8.650;2023-04-30T10:15:24;2.40;;;2.20;;
4422;SDS011;2224;49.814;8.650;2023-04-30T10:17:56;2.97;;;2.20;;
4422;SDS011;2224;49.814;8.650;2023-04-30T10:20:29;1.90;;;1.70;;
4422;SDS011;2224;49.814;8.650;2023-04-30T10:22:55;2.10;;;1.90;;
4422;SDS011;2224;49.814;8.650;2023-04-30T10:25:21;2.03;;;1.80;;
4422;SDS011;2224;49.814;8.650;2023-04-30T10:27:47;3.33;;;1.90;;
4422;SDS011;2224;49.814;8.650;2023-04-30T10:30:12;2.00;;;1.90;;
4422;SDS011;2224;49.814;8.650;2023-04-30T10:32:43;4.90;;;2.07;;
4422;SDS011;2224;49.814;8.650;2023-04-30T10:35:18;8.23;;;2.70;;
4422;SDS011;2224;49.814;8.650;2023-04-30T10:40:18;2.10;;;1.40;;
4422;SDS011;2224;49.814;8.650;2023-04-30T10:42:44;1.67;;;1.57;;
4422;SDS011;2224;49.814;8.650;2023-04-30T10:45:10;2.90;;;2.00;;
4422;SDS011;2224;49.814;8.650;2023-04-30T10:47:36;3.40;;;2.20;;
4422;SDS011;2224;49.814;8.650;2023-04-30T10:50:03;4.33;;;1.93;;
4422;SDS011;2224;49.814;8.650;2023-04-30T10:52:29;2.00;;;1.60;;
4422;SDS011;2224;49.814;8.650;2023-04-30T10:54:54;7.80;;;1.80;;
4422;SDS011;2224;49.814;8.650;2023-04-30T10:57:19;2.40;;;1.50;;
4422;SDS011;2224;49.814;8.650;2023-04-30T11:02:38;1.90;;;1.27;;
4422;SDS011;2224;49.814;8.650;2023-04-30T11:07:55;1.47;;;0.97;;
4422;SDS011;2224;49.814;8.650;2023-04-30T11:10:22;4.93;;;1.40;;
4422;SDS011;2224;49.814;8.650;2023-04-30T11:12:49;5.40;;;1.73;;
4422;SDS011;2224;49.814;8.650;2023-04-30T11:15:17;1.37;;;1.27;;
4422;SDS011;2224;49.814;8.650;2023-04-30T11:17:44;2.30;;;1.50;;
4422;SDS011;2224;49.814;8.650;2023-04-30T11:20:13;2.50;;;1.47;;
4422;SDS011;2224;49.814;8.650;2023-04-30T11:22:43;5.07;;;1.73;;
4422;SDS011;2224;49.814;8.650;2023-04-30T11:25:09;1.27;;;1.17;;
4422;SDS011;2224;49.814;8.650;2023-04-30T11:27:41;1.57;;;1.47;;
4422;SDS011;2224;49.814;8.650;2023-04-30T11:30:11;2.90;;;1.60;;
4422;SDS011;2224;49.814;8.650;2023-04-30T11:32:41;2.93;;;1.43;;
4422;SDS011;2224;49.814;8.650;2023-04-30T11:35:09;4.60;;;1.50;;
4422;SDS011;2224;49.814;8.650;2023-04-30T11:37:36;1.40;;;1.30;;
4422;SDS011;2224;49.814;8.650;2023-04-30T11:40:02;1.43;;;1.33;;
4422;SDS011;2224;49.814;8.650;2023-04-30T11:42:35;1.50;;;1.40;;
4422;SDS011;2224;49.814;8.650;2023-04-30T11:45:10;1.47;;;1.20;;
4422;SDS011;2224;49.814;8.650;2023-04-30T11:47:58;1.67;;;1.20;;
4422;SDS011;2224;49.814;8.650;2023-04-30T11:50:23;2.03;;;1.40;;
4422;SDS011;2224;49.814;8.650;2023-04-30T11:52:56;5.37;;;1.37;;
4422;SDS011;2224;49.814;8.650;2023-04-30T11:55:23;1.37;;;1.27;;
4422;SDS011;2224;49.814;8.650;2023-04-30T11:57:50;2.50;;;1.30;;
4422;SDS011;2224;49.814;8.650;2023-04-30T12:00:18;1.87;;;1.33;;
4422;SDS011;2224;49.814;8.650;2023-04-30T12:02:48;1.73;;;1.50;;
4422;SDS011;2224;49.814;8.650;2023-04-30T12:05:14;2.20;;;1.00;;
4422;SDS011;2224;49.814;8.650;2023-04-30T12:07:45;1.53;;;1.37;;
4422;SDS011;2224;49.814;8.650;2023-04-30T12:10:20;3.93;;;1.20;;
4422;SDS011;2224;49.814;8.650;2023-04-30T12:12:47;2.20;;;1.60;;
4422;SDS011;2224;49.814;8.650;2023-04-30T12:17:39;1.27;;;1.17;;
4422;SDS011;2224;49.814;8.650;2023-04-30T12:20:05;1.80;;;1.43;;
4422;SDS011;2224;49.814;8.650;2023-04-30T12:22:32;1.30;;;1.20;;
4422;SDS011;2224;49.814;8.650;2023-04-30T12:24:58;1.70;;;1.30;;
4422;SDS011;2224;49.814;8.650;2023-04-30T12:27:24;1.47;;;0.80;;
4422;SDS011;2224;49.814;8.650;2023-04-30T12:29:49;3.80;;;1.30;;
4422;SDS011;2224;49.814;8.650;2023-04-30T12:32:19;1.53;;;1.43;;
4422;SDS011;2224;49.814;8.650;2023-04-30T12:34:45;1.63;;;1.17;;
4422;SDS011;2224;49.814;8.650;2023-04-30T12:37:13;1.57;;;1.00;;
4422;SDS011;2224;49.814;8.650;2023-04-30T12:39:39;1.30;;;1.03;;
4422;SDS011;2224;49.814;8.650;2023-04-30T12:42:05;1.10;;;1.00;;
4422;SDS011;2224;49.814;8.650;2023-04-30T12:44:31;1.07;;;0.97;;
4422;SDS011;2224;49.814;8.650;2023-04-30T12:47:07;1.03;;;0.90;;
4422;SDS011;2224;49.814;8.650;2023-04-30T12:49:34;1.60;;;0.80;;
4422;SDS011;2224;49.814;8.650;2023-04-30T12:52:01;1.50;;;1.40;;
4422;SDS011;2224;49.814;8.650;2023-04-30T12:54:31;1.80;;;1.00;;
4422;SDS011;2224;49.814;8.650;2023-04-30T12:59:24;1.27;;;1.17;;
4422;SDS011;2224;49.814;8.650;2023-04-30T13:01:49;1.10;;;1.00;;
4422;SDS011;2224;49.814;8.650;2023-04-30T13:04:14;1.10;;;1.00;;
4422;SDS011;2224;49.814;8.650;2023-04-30T13:06:40;1.10;;;1.00;;
4422;SDS011;2224;49.814;8.650;2023-04-30T13:09:05;2.33;;;0.97;;
4422;SDS011;2224;49.814;8.650;2023-04-30T13:11:30;1.37;;;1.20;;
4422;SDS011;2224;49.814;8.650;2023-04-30T13:13:56;2.47;;;1.07;;
4422;SDS011;2224;49.814;8.650;2023-04-30T13:16:21;0.87;;;0.87;;
4422;SDS011;2224;49.814;8.650;2023-04-30T13:22:09;2.20;;;1.10;;
4422;SDS011;2224;49.814;8.650;2023-04-30T13:24:35;1.97;;;1.40;;
4422;SDS011;2224;49.814;8.650;2023-04-30T13:27:00;2.63;;;1.33;;
4422;SDS011;2224;49.814;8.650;2023-04-30T13:29:26;1.10;;;0.83;;
4422;SDS011;2224;49.814;8.650;2023-04-30T13:31:51;1.53;;;0.97;;
4422;SDS011;2224;49.814;8.650;2023-04-30T13:34:17;1.30;;;1.20;;
4422;SDS011;2224;49.814;8.650;2023-04-30T13:36:42;2.20;;;0.90;;
4422;SDS011;2224;49.814;8.650;2023-04-30T13:39:07;1.00;;;0.90;;
4422;SDS011;2224;49.814;8.650;2023-04-30T13:41:33;1.10;;;0.73;;
4422;SDS011;2224;49.814;8.650;2023-04-30T13:43:58;2.13;;;1.10;;
4422;SDS011;2224;49.814;8.650;2023-04-30T13:46:24;1.20;;;0.90;;
4422;SDS011;2224;49.814;8.650;2023-04-30T13:48:49;1.00;;;0.70;;
4422;SDS011;2224;49.814;8.650;2023-04-30T13:51:17;2.50;;;1.00;;
4422;SDS011;2224;49.814;8.650;2023-04-30T13:53:42;1.93;;;1.20;;
4422;SDS011;2224;49.814;8.650;2023-04-30T13:56:08;1.20;;;1.10;;
4422;SDS011;2224;49.814;8.650;2023-04-30T13:58:34;0.90;;;0.90;;
4422;SDS011;2224;49.814;8.650;2023-04-30T14:00:59;0.97;;;0.70;;
4422;SDS011;2224;49.814;8.650;2023-04-30T14:03:25;1.00;;;0.80;;
4422;SDS011;2224;49.814;8.650;2023-04-30T14:05:50;2.07;;;1.00;;
4422;SDS011;2224;49.814;8.650;2023-04-30T14:08:16;1.03;;;0.93;;
4422;SDS011;2224;49.814;8.650;2023-04-30T14:10:41;1.40;;;1.00;;
4422;SDS011;2224;49.814;8.650;2023-04-30T14:13:06;0.90;;;0.80;;
4422;SDS011;2224;49.814;8.650;2023-04-30T14:15:32;1.37;;;1.10;;
4422;SDS011;2224;49.814;8.650;2023-04-30T14:17:58;2.10;;;1.50;;
4422;SDS011;2224;49.814;8.650;2023-04-30T14:20:24;1.20;;;1.00;;
4422;SDS011;2224;49.814;8.650;2023-04-30T14:22:49;1.00;;;0.90;;
4422;SDS011;2224;49.814;8.650;2023-04-30T14:25:15;1.20;;;0.97;;
4422;SDS011;2224;49.814;8.650;2023-04-30T14:27:41;1.60;;;1.10;;
4422;SDS011;2224;49.814;8.650;2023-04-30T14:30:06;3.83;;;1.00;;
4422;SDS011;2224;49.814;8.650;2023-04-30T14:32:33;8.63;;;1.50;;
4422;SDS011;2224;49.814;8.650;2023-04-30T14:34:58;1.60;;;1.03;;
4422;SDS011;2224;49.814;8.650;2023-04-30T14:37:23;1.00;;;0.80;;
4422;SDS011;2224;49.814;8.650;2023-04-30T14:39:50;4.30;;;1.23;;
4422;SDS011;2224;49.814;8.650;2023-04-30T14:42:15;12.30;;;2.77;;
4422;SDS011;2224;49.814;8.650;2023-04-30T14:44:40;4.90;;;2.30;;
4422;SDS011;2224;49.814;8.650;2023-04-30T14:47:06;0.73;;;0.70;;
4422;SDS011;2224;49.814;8.650;2023-04-30T14:49:31;1.13;;;1.03;;
4422;SDS011;2224;49.814;8.650;2023-04-30T14:51:57;45.47;;;5.60;;
4422;SDS011;2224;49.814;8.650;2023-04-30T14:54:22;3.20;;;1.10;;
4422;SDS011;2224;49.814;8.650;2023-04-30T14:56:47;0.90;;;0.90;;
4422;SDS011;2224;49.814;8.650;2023-04-30T14:59:13;2.13;;;1.33;;
4422;SDS011;2224;49.814;8.650;2023-04-30T15:01:38;1.00;;;0.90;;
4422;SDS011;2224;49.814;8.650;2023-04-30T15:04:04;1.30;;;1.03;;
4422;SDS011;2224;49.814;8.650;2023-04-30T15:06:30;5.17;;;1.40;;
4422;SDS011;2224;49.814;8.650;2023-04-30T15:08:55;1.17;;;0.80;;
4422;SDS011;2224;49.814;8.650;2023-04-30T15:11:20;1.20;;;1.10;;
4422;SDS011;2224;49.814;8.650;2023-04-30T15:13:46;1.00;;;0.90;;
4422;SDS011;2224;49.814;8.650;2023-04-30T15:16:11;1.13;;;0.70;;
4422;SDS011;2224;49.814;8.650;2023-04-30T15:18:37;2.23;;;1.10;;
4422;SDS011;2224;49.814;8.650;2023-04-30T15:21:02;1.03;;;0.83;;
4422;SDS011;2224;49.814;8.650;2023-04-30T15:23:28;1.30;;;0.90;;
4422;SDS011;2224;49.814;8.650;2023-04-30T15:25:54;2.30;;;1.30;;
4422;SDS011;2224;49.814;8.650;2023-04-30T15:28:20;4.70;;;2.53;;
4422;SDS011;2224;49.814;8.650;2023-04-30T15:30:48;4.60;;;1.57;;
4422;SDS011;2224;49.814;8.650;2023-04-30T15:33:13;7.43;;;1.83;;
4422;SDS011;2224;49.814;8.650;2023-04-30T15:35:39;5.33;;;1.23;;